createdAt,value
2023-05-05T00:01:07.626Z,58.80
2023-05-05T00:03:36.411Z,58.80
2023-05-05T00:06:05.415Z,58.80
2023-05-05T00:08:33.616Z,58.80
2023-05-05T00:11:01.735Z,58.80
2023-05-05T00:13:29.920Z,58.70
2023-05-05T00:15:58.203Z,58.70
2023-05-05T00:18:29.473Z,58.70
2023-05-05T00:20:57.711Z,58.70
2023-05-05T00:23:25.911Z,58.70
2023-05-05T00:25:54.079Z,58.70
2023-05-05T00:28:22.251Z,58.70
2023-05-05T00:30:50.506Z,58.70
2023-05-05T00:33:18.705Z,58.70
2023-05-05T00:35:49.063Z,58.70
2023-05-05T00:38:17.505Z,58.70
2023-05-05T00:40:45.681Z,58.70
2023-05-05T00:43:13.982Z,58.70
2023-05-05T00:45:47.438Z,58.70
2023-05-05T00:48:16.963Z,58.70
2023-05-05T00:50:45.992Z,58.70
2023-05-05T00:53:15.590Z,58.70
2023-05-05T00:55:43.781Z,58.70
2023-05-05T00:58:13.313Z,58.70
2023-05-05T01:00:41.881Z,58.70
2023-05-05T01:03:10.460Z,58.70
2023-05-05T01:05:46.650Z,58.70
2023-05-05T01:08:34.599Z,58.70
2023-05-05T01:11:08.926Z,58.70
2023-05-05T01:13:49.240Z,58.70
2023-05-05T01:16:22.220Z,58.70
2023-05-05T01:18:57.420Z,58.60
2023-05-05T01:21:31.316Z,58.70
2023-05-05T01:24:12.438Z,58.70
2023-05-05T01:26:53.828Z,58.70
2023-05-05T01:29:39.423Z,58.70
2023-05-05T01:32:13.985Z,58.70
2023-05-05T01:34:46.396Z,58.70
2023-05-05T01:37:19.513Z,58.70
2023-05-05T01:39:51.148Z,58.70
2023-05-05T01:42:20.398Z,58.70
2023-05-05T01:44:50.004Z,58.60
2023-05-05T01:47:22.196Z,58.60
2023-05-05T01:49:51.703Z,58.70
2023-05-05T01:52:20.379Z,58.60
2023-05-05T01:54:50.409Z,58.60
2023-05-05T01:57:21.120Z,58.60
2023-05-05T01:59:52.302Z,58.60
2023-05-05T02:02:23.523Z,58.60
2023-05-05T02:04:53.851Z,58.60
2023-05-05T02:07:24.526Z,58.60
2023-05-05T02:09:53.498Z,58.60
2023-05-05T02:12:22.622Z,58.60
2023-05-05T02:14:51.892Z,58.60
2023-05-05T02:17:24.061Z,58.60
2023-05-05T02:19:54.169Z,58.60
2023-05-05T02:22:22.365Z,58.60
2023-05-05T02:24:50.519Z,58.60
2023-05-05T02:27:22.753Z,58.60
2023-05-05T02:29:55.234Z,58.60
2023-05-05T02:32:32.604Z,58.60
2023-05-05T02:35:05.976Z,58.60
2023-05-05T02:37:36.536Z,58.60
2023-05-05T02:40:08.880Z,58.60
2023-05-05T02:42:41.589Z,58.60
2023-05-05T02:45:17.028Z,58.70
2023-05-05T02:47:50.060Z,58.60
2023-05-05T02:50:18.435Z,58.60
2023-05-05T02:52:55.403Z,58.60
2023-05-05T02:55:25.910Z,58.60
2023-05-05T02:58:01.771Z,58.60
2023-05-05T03:00:36.686Z,58.60
2023-05-05T03:03:17.801Z,58.60
2023-05-05T03:06:00.635Z,58.60
2023-05-05T03:08:34.904Z,58.60
2023-05-05T03:11:07.644Z,58.60
2023-05-05T03:13:43.536Z,58.60
2023-05-05T03:16:18.830Z,58.60
2023-05-05T03:18:51.097Z,58.70
2023-05-05T03:21:19.948Z,58.70
2023-05-05T03:23:48.226Z,58.60
2023-05-05T03:26:21.360Z,58.70
2023-05-05T03:28:49.587Z,58.60
2023-05-05T03:31:28.497Z,58.60
2023-05-05T03:34:01.026Z,58.60
2023-05-05T03:36:35.965Z,58.70
2023-05-05T03:39:04.840Z,58.70
2023-05-05T03:41:35.844Z,58.60
2023-05-05T03:44:05.987Z,58.70
2023-05-05T03:46:34.843Z,58.70
2023-05-05T03:49:04.693Z,58.70
2023-05-05T03:51:33.923Z,58.70
2023-05-05T03:54:02.029Z,58.60
2023-05-05T03:56:30.216Z,58.60
2023-05-05T03:58:58.289Z,58.60
2023-05-05T04:01:29.040Z,58.60
2023-05-05T04:03:58.449Z,58.60
2023-05-05T04:06:28.048Z,58.60
2023-05-05T04:08:56.200Z,58.60
2023-05-05T04:11:24.448Z,58.60
2023-05-05T04:13:52.630Z,58.60
2023-05-05T04:16:21.046Z,58.60
2023-05-05T04:18:49.302Z,58.60
2023-05-05T04:21:17.524Z,58.60
2023-05-05T04:23:47.616Z,58.60
2023-05-05T04:26:15.853Z,58.70
2023-05-05T04:28:44.083Z,58.70
2023-05-05T04:31:12.730Z,58.70
2023-05-05T04:33:43.581Z,58.70
2023-05-05T04:36:12.252Z,58.70
2023-05-05T04:38:40.571Z,58.70
2023-05-05T04:41:10.185Z,58.70
2023-05-05T04:43:39.997Z,58.70
2023-05-05T04:46:08.255Z,58.70
2023-05-05T04:48:38.538Z,58.70
2023-05-05T04:51:08.001Z,58.70
2023-05-05T04:53:37.193Z,58.70
2023-05-05T04:56:05.490Z,58.70
2023-05-05T04:58:35.092Z,58.70
2023-05-05T05:01:03.471Z,58.80
2023-05-05T05:03:32.304Z,59.00
2023-05-05T05:06:00.575Z,58.90
2023-05-05T05:08:29.422Z,58.90
2023-05-05T05:10:57.576Z,58.90
2023-05-05T05:13:25.896Z,58.90
2023-05-05T05:15:55.574Z,58.90
2023-05-05T05:18:23.702Z,58.90
2023-05-05T05:20:52.874Z,58.90
2023-05-05T05:23:21.400Z,58.90
2023-05-05T05:25:49.593Z,58.90
2023-05-05T05:28:19.908Z,58.90
2023-05-05T05:30:53.182Z,58.90
2023-05-05T05:33:22.938Z,58.90
2023-05-05T05:35:52.257Z,58.90
2023-05-05T05:38:22.253Z,58.90
2023-05-05T05:40:54.474Z,58.90
2023-05-05T05:43:23.153Z,58.90
2023-05-05T05:45:52.027Z,58.90
2023-05-05T05:48:24.833Z,58.90
2023-05-05T05:50:53.512Z,58.90
2023-05-05T05:53:21.860Z,58.90
2023-05-05T05:55:51.036Z,58.90
2023-05-05T05:58:19.439Z,58.90
2023-05-05T06:00:48.928Z,58.90
2023-05-05T06:03:17.336Z,58.90
2023-05-05T06:05:47.698Z,58.90
2023-05-05T06:08:16.737Z,58.90
2023-05-05T06:10:49.748Z,58.90
2023-05-05T06:13:22.623Z,58.90
2023-05-05T06:15:52.835Z,58.90
2023-05-05T06:18:21.276Z,58.90
2023-05-05T06:20:52.580Z,58.90
2023-05-05T06:23:23.049Z,58.90
2023-05-05T06:25:56.924Z,58.90
2023-05-05T06:28:25.196Z,58.90
2023-05-05T06:30:53.314Z,58.90
2023-05-05T06:33:21.510Z,58.90
2023-05-05T06:35:52.374Z,58.90
2023-05-05T06:38:20.556Z,58.90
2023-05-05T06:40:49.851Z,58.80
2023-05-05T06:43:18.456Z,58.80
2023-05-05T06:45:53.851Z,58.80
2023-05-05T06:48:22.166Z,58.80
2023-05-05T06:50:51.915Z,58.80
2023-05-05T06:53:20.082Z,58.80
2023-05-05T06:55:48.867Z,58.80
2023-05-05T06:58:16.961Z,58.70
2023-05-05T07:00:45.201Z,58.80
2023-05-05T07:03:13.478Z,58.70
2023-05-05T07:05:41.938Z,58.80
2023-05-05T07:08:11.548Z,58.80
2023-05-05T07:10:39.693Z,58.70
2023-05-05T07:13:08.486Z,58.80
2023-05-05T07:15:37.012Z,59.40
2023-05-05T07:18:05.372Z,59.80
2023-05-05T07:20:33.646Z,60.20
2023-05-05T07:23:01.886Z,60.50
2023-05-05T07:25:31.493Z,60.80
2023-05-05T07:27:59.852Z,61.10
2023-05-05T07:30:28.126Z,61.20
2023-05-05T07:32:56.886Z,61.20
2023-05-05T07:35:25.094Z,61.20
2023-05-05T07:37:53.245Z,61.20
2023-05-05T07:40:21.671Z,61.30
2023-05-05T07:42:51.865Z,61.40
2023-05-05T07:45:20.175Z,61.40
2023-05-05T07:47:48.416Z,61.30
2023-05-05T07:50:16.596Z,61.10
2023-05-05T07:52:50.070Z,61.10
2023-05-05T07:55:22.128Z,61.20
2023-05-05T07:57:51.664Z,61.20
2023-05-05T08:00:22.797Z,61.00
2023-05-05T08:02:51.154Z,60.90
2023-05-05T08:05:19.562Z,60.90
2023-05-05T08:07:47.768Z,60.90
2023-05-05T08:10:15.999Z,60.80
2023-05-05T08:12:44.277Z,60.80
2023-05-05T08:15:14.120Z,60.80
2023-05-05T08:17:48.861Z,60.70
2023-05-05T08:20:17.501Z,60.80
2023-05-05T08:22:46.355Z,60.70
2023-05-05T08:25:14.969Z,60.80
2023-05-05T08:27:44.172Z,60.70
2023-05-05T08:30:16.540Z,60.70
2023-05-05T08:32:44.717Z,60.70
2023-05-05T08:35:13.058Z,60.70
2023-05-05T08:37:41.527Z,60.70
2023-05-05T08:40:14.055Z,60.70
2023-05-05T08:42:42.481Z,60.70
2023-05-05T08:45:11.625Z,60.80
2023-05-05T08:47:43.268Z,60.70
2023-05-05T08:50:12.605Z,60.60
2023-05-05T08:52:44.515Z,60.70
2023-05-05T08:55:19.709Z,60.70
2023-05-05T08:57:52.774Z,60.60
2023-05-05T09:00:22.253Z,60.70
2023-05-05T09:02:52.386Z,60.60
2023-05-05T09:05:20.643Z,60.50
2023-05-05T09:07:48.940Z,60.50
2023-05-05T09:10:17.167Z,60.50
2023-05-05T09:12:45.384Z,60.40
2023-05-05T09:15:15.468Z,60.30
2023-05-05T09:17:43.872Z,60.30
2023-05-05T09:20:15.270Z,60.40
2023-05-05T09:22:44.662Z,60.30
2023-05-05T09:25:14.638Z,60.40
2023-05-05T09:27:45.879Z,60.20
2023-05-05T09:30:16.606Z,60.30
2023-05-05T09:32:46.304Z,60.30
2023-05-05T09:35:16.668Z,60.10
2023-05-05T09:37:45.283Z,60.30
2023-05-05T09:40:15.118Z,60.20
2023-05-05T09:42:44.661Z,60.10
2023-05-05T09:45:27.496Z,60.00
2023-05-05T09:47:59.656Z,60.10
2023-05-05T09:50:32.675Z,60.00
2023-05-05T09:53:04.365Z,60.00
2023-05-05T09:55:32.553Z,60.00
2023-05-05T09:58:19.125Z,60.10
2023-05-05T10:00:47.595Z,60.10
2023-05-05T10:03:16.087Z,59.80
2023-05-05T10:05:53.995Z,59.80
2023-05-05T10:08:23.991Z,59.90
2023-05-05T10:10:53.538Z,59.80
2023-05-05T10:13:23.039Z,59.70
2023-05-05T10:15:53.251Z,59.70
2023-05-05T10:18:23.339Z,59.70
2023-05-05T10:20:59.259Z,59.60
2023-05-05T10:23:35.668Z,59.80
2023-05-05T10:26:06.693Z,59.80
2023-05-05T10:28:35.963Z,59.80
2023-05-05T10:31:16.556Z,59.70
2023-05-05T10:33:56.929Z,59.70
2023-05-05T10:36:27.982Z,59.90
2023-05-05T10:38:58.252Z,59.90
2023-05-05T10:41:26.971Z,59.90
2023-05-05T10:43:57.905Z,59.90
2023-05-05T10:46:27.908Z,60.10
2023-05-05T10:49:00.998Z,60.00
2023-05-05T10:51:41.401Z,59.90
2023-05-05T10:54:15.086Z,59.80
2023-05-05T10:56:44.859Z,59.90
2023-05-05T10:59:40.322Z,59.90
2023-05-05T11:02:23.621Z,59.80
2023-05-05T11:05:08.646Z,59.90
2023-05-05T11:07:38.786Z,59.80
2023-05-05T11:10:08.759Z,59.80
2023-05-05T11:13:10.648Z,60.10
2023-05-05T11:15:39.286Z,60.10
2023-05-05T11:18:08.399Z,60.70
2023-05-05T11:21:15.630Z,60.50
2023-05-05T11:23:50.593Z,60.40
2023-05-05T11:26:40.038Z,60.60
2023-05-05T11:29:08.256Z,60.50
2023-05-05T11:31:36.560Z,60.40
2023-05-05T11:34:27.919Z,60.50
2023-05-05T11:37:03.112Z,60.40
2023-05-05T11:39:42.061Z,60.50
2023-05-05T11:42:26.089Z,60.50
2023-05-05T11:44:55.624Z,60.30
2023-05-05T11:47:34.202Z,60.40
2023-05-05T11:50:20.307Z,60.30
2023-05-05T11:52:49.289Z,60.20
2023-05-05T11:55:24.995Z,60.20
2023-05-05T11:57:53.309Z,60.00
2023-05-05T12:00:32.185Z,59.90
2023-05-05T12:03:00.595Z,59.90
2023-05-05T12:05:28.900Z,59.70
2023-05-05T12:08:00.268Z,59.70
2023-05-05T12:10:30.241Z,59.70
2023-05-05T12:12:58.449Z,59.70
2023-05-05T12:15:33.563Z,59.80
2023-05-05T12:18:03.236Z,59.90
2023-05-05T12:20:36.602Z,59.80
2023-05-05T12:23:05.568Z,60.00
2023-05-05T12:25:39.747Z,59.90
2023-05-05T12:28:09.185Z,59.80
2023-05-05T12:30:37.540Z,59.80
2023-05-05T12:33:07.169Z,59.70
2023-05-05T12:35:35.892Z,59.70
2023-05-05T12:38:04.164Z,59.50
2023-05-05T12:40:47.482Z,59.40
2023-05-05T12:43:30.314Z,59.40
2023-05-05T12:46:07.201Z,59.30
2023-05-05T12:48:37.903Z,59.30
2023-05-05T12:51:20.014Z,59.30
2023-05-05T12:53:49.457Z,59.40
2023-05-05T12:56:35.967Z,59.50
2023-05-05T12:59:05.226Z,59.50
2023-05-05T13:01:33.730Z,59.50
2023-05-05T13:04:10.629Z,59.70
2023-05-05T13:06:39.730Z,59.60
2023-05-05T13:09:09.004Z,59.50
2023-05-05T13:11:39.132Z,59.40
2023-05-05T13:14:08.856Z,59.30
2023-05-05T13:16:36.995Z,59.30
2023-05-05T13:19:05.254Z,59.30
2023-05-05T13:21:33.491Z,59.30
2023-05-05T13:24:19.060Z,59.20
2023-05-05T13:26:50.914Z,59.10
2023-05-05T13:29:19.404Z,59.00
2023-05-05T13:31:47.597Z,59.00
2023-05-05T13:34:15.824Z,59.10
2023-05-05T13:36:44.044Z,59.00
2023-05-05T13:39:12.619Z,59.00
2023-05-05T13:41:44.632Z,58.90
2023-05-05T13:44:14.759Z,58.80
2023-05-05T13:46:43.322Z,58.90
2023-05-05T13:49:11.548Z,58.90
2023-05-05T13:51:39.856Z,58.90
2023-05-05T13:54:08.508Z,58.80
2023-05-05T13:56:37.088Z,58.90
2023-05-05T13:59:05.349Z,58.80
2023-05-05T14:01:35.028Z,58.90
2023-05-05T14:04:05.360Z,58.90
2023-05-05T14:06:34.200Z,58.90
2023-05-05T14:09:05.630Z,58.90
2023-05-05T14:11:33.931Z,58.90
2023-05-05T14:14:02.044Z,59.10
2023-05-05T14:16:30.259Z,59.20
2023-05-05T14:18:59.832Z,59.20
2023-05-05T14:21:27.975Z,59.10
2023-05-05T14:23:56.135Z,59.20
2023-05-05T14:26:24.410Z,59.20
2023-05-05T14:28:52.559Z,59.20
2023-05-05T14:31:20.739Z,59.20
2023-05-05T14:33:48.914Z,59.20
2023-05-05T14:36:18.442Z,59.20
2023-05-05T14:38:46.641Z,59.20
2023-05-05T14:41:14.801Z,59.30
2023-05-05T14:43:42.944Z,59.50
2023-05-05T14:46:11.321Z,59.50
2023-05-05T14:48:39.631Z,59.50
2023-05-05T14:51:07.834Z,59.60
2023-05-05T14:53:37.559Z,59.70
2023-05-05T14:56:06.220Z,60.00
2023-05-05T14:58:34.496Z,60.00
2023-05-05T15:01:02.700Z,60.00
2023-05-05T15:03:30.913Z,60.00
2023-05-05T15:05:59.279Z,59.90
2023-05-05T15:08:27.424Z,59.90
2023-05-05T15:10:56.929Z,59.90
2023-05-05T15:13:25.082Z,60.00
2023-05-05T15:15:53.233Z,60.00
2023-05-05T15:18:21.438Z,59.90
2023-05-05T15:20:49.605Z,60.10
2023-05-05T15:23:17.792Z,60.00
2023-05-05T15:25:46.256Z,60.10
2023-05-05T15:28:15.830Z,60.20
2023-05-05T15:30:44.013Z,60.10
2023-05-05T15:33:12.170Z,60.20
2023-05-05T15:35:40.295Z,60.20
2023-05-05T15:38:08.434Z,60.30
2023-05-05T15:40:36.614Z,60.30
2023-05-05T15:43:04.827Z,60.20
2023-05-05T15:45:34.365Z,60.20
2023-05-05T15:48:02.563Z,60.30
2023-05-05T15:50:30.979Z,60.30
2023-05-05T15:52:59.138Z,60.30
2023-05-05T15:55:27.577Z,60.30
2023-05-05T15:57:55.798Z,60.40
2023-05-05T16:00:24.057Z,60.40
2023-05-05T16:02:53.623Z,60.40
2023-05-05T16:05:23.130Z,60.40
2023-05-05T16:07:52.539Z,60.40
2023-05-05T16:10:20.934Z,60.40
2023-05-05T16:12:49.097Z,60.50
2023-05-05T16:15:17.260Z,60.50
2023-05-05T16:17:45.476Z,60.50
2023-05-05T16:20:15.157Z,60.40
2023-05-05T16:22:43.326Z,60.50
2023-05-05T16:25:11.625Z,60.40
2023-05-05T16:27:39.803Z,60.50
2023-05-05T16:30:10.250Z,60.40
2023-05-05T16:32:38.501Z,60.40
2023-05-05T16:35:09.222Z,60.30
2023-05-05T16:37:39.093Z,60.30
2023-05-05T16:40:08.512Z,60.30
2023-05-05T16:42:36.618Z,60.30
2023-05-05T16:45:05.266Z,60.10
2023-05-05T16:47:33.472Z,60.20
2023-05-05T16:50:01.645Z,60.00
2023-05-05T16:52:29.769Z,59.90
2023-05-05T16:54:59.320Z,59.90
2023-05-05T16:57:27.707Z,59.70
2023-05-05T16:59:57.029Z,59.60
2023-05-05T17:02:25.178Z,59.60
2023-05-05T17:04:53.378Z,59.50
2023-05-05T17:07:21.546Z,59.50
2023-05-05T17:09:49.748Z,59.40
2023-05-05T17:12:19.252Z,59.50
2023-05-05T17:14:47.418Z,59.40
2023-05-05T17:17:15.569Z,59.40
2023-05-05T17:19:44.793Z,59.30
2023-05-05T17:22:12.987Z,59.20
2023-05-05T17:24:41.189Z,59.20
2023-05-05T17:27:09.321Z,59.40
2023-05-05T17:29:40.877Z,60.20
2023-05-05T17:32:09.423Z,60.20
2023-05-05T17:34:37.756Z,60.50
2023-05-05T17:37:05.954Z,60.50
2023-05-05T17:39:34.348Z,60.10
2023-05-05T17:42:02.495Z,60.40
2023-05-05T17:44:31.450Z,59.80
2023-05-05T17:47:02.743Z,59.50
2023-05-05T17:49:31.096Z,59.60
2023-05-05T17:51:59.240Z,59.30
2023-05-05T17:54:27.448Z,59.30
2023-05-05T17:56:55.572Z,59.30
2023-05-05T17:59:23.686Z,59.30
2023-05-05T18:01:51.818Z,59.30
2023-05-05T18:04:21.288Z,59.70
2023-05-05T18:06:49.400Z,59.50
2023-05-05T18:09:17.706Z,59.50
2023-05-05T18:11:45.870Z,59.50
2023-05-05T18:14:14.051Z,59.50
2023-05-05T18:16:47.621Z,59.60
2023-05-05T18:19:16.151Z,59.60
2023-05-05T18:21:45.739Z,59.70
2023-05-05T18:24:20.111Z,59.80
2023-05-05T18:26:50.578Z,59.90
2023-05-05T18:29:19.094Z,59.90
2023-05-05T18:31:49.462Z,59.90
2023-05-05T18:34:17.887Z,59.90
2023-05-05T18:36:47.964Z,59.90
2023-05-05T18:39:16.301Z,60.00
2023-05-05T18:41:44.489Z,60.20
2023-05-05T18:44:12.639Z,60.30
2023-05-05T18:46:40.895Z,60.40
2023-05-05T18:49:09.084Z,60.20
2023-05-05T18:51:37.215Z,60.30
2023-05-05T18:54:07.053Z,60.20
2023-05-05T18:56:35.452Z,60.20
2023-05-05T18:59:04.721Z,60.20
2023-05-05T19:01:33.006Z,60.30
2023-05-05T19:04:01.297Z,60.30
2023-05-05T19:06:29.485Z,60.40
2023-05-05T19:08:57.984Z,60.30
2023-05-05T19:11:28.020Z,60.30
2023-05-05T19:13:56.257Z,60.30
2023-05-05T19:16:24.851Z,60.30
2023-05-05T19:18:54.523Z,60.40
2023-05-05T19:21:22.682Z,60.50
2023-05-05T19:23:53.096Z,60.50
2023-05-05T19:26:21.792Z,60.50
2023-05-05T19:28:51.255Z,60.60
2023-05-05T19:31:19.877Z,60.60
2023-05-05T19:33:48.356Z,60.60
2023-05-05T19:36:16.540Z,60.60
2023-05-05T19:38:46.474Z,60.70
2023-05-05T19:41:14.784Z,60.70
2023-05-05T19:43:46.227Z,60.70
2023-05-05T19:46:17.015Z,60.70
2023-05-05T19:48:46.108Z,60.70
2023-05-05T19:51:14.341Z,60.70
2023-05-05T19:53:42.836Z,60.70
2023-05-05T19:56:11.609Z,60.70
2023-05-05T19:58:57.744Z,60.80
2023-05-05T20:01:27.995Z,60.80
2023-05-05T20:03:57.727Z,60.80
2023-05-05T20:06:26.944Z,60.80
2023-05-05T20:08:55.465Z,60.80
2023-05-05T20:11:23.978Z,60.80
2023-05-05T20:13:52.999Z,60.80
2023-05-05T20:16:21.568Z,60.80
2023-05-05T20:18:51.205Z,60.80
2023-05-05T20:21:19.594Z,60.90
2023-05-05T20:23:47.721Z,60.80
2023-05-05T20:26:15.880Z,60.80
2023-05-05T20:28:45.692Z,60.80
2023-05-05T20:31:15.936Z,60.90
2023-05-05T20:33:44.135Z,60.80
2023-05-05T20:36:13.631Z,61.00
2023-05-05T20:38:41.720Z,60.80
2023-05-05T20:41:09.881Z,60.90
2023-05-05T20:43:38.014Z,60.90
2023-05-05T20:46:06.169Z,60.90
2023-05-05T20:48:34.287Z,60.90
2023-05-05T20:51:04.746Z,60.90
2023-05-05T20:53:34.408Z,60.90
2023-05-05T20:56:02.532Z,60.90
2023-05-05T20:58:31.151Z,60.90
2023-05-05T21:00:59.288Z,60.90
2023-05-05T21:03:27.458Z,60.90
2023-05-05T21:05:55.805Z,61.00
2023-05-05T21:08:23.999Z,61.00
2023-05-05T21:10:53.490Z,61.00
2023-05-05T21:13:21.767Z,61.00
2023-05-05T21:15:51.278Z,61.00
2023-05-05T21:18:19.430Z,61.00
2023-05-05T21:20:47.638Z,61.00
2023-05-05T21:23:15.870Z,61.00
2023-05-05T21:25:43.986Z,61.10
2023-05-05T21:28:13.473Z,61.10
2023-05-05T21:30:41.630Z,61.00
2023-05-05T21:33:09.789Z,61.10
2023-05-05T21:35:37.974Z,61.10
2023-05-05T21:38:06.102Z,61.10
2023-05-05T21:40:34.276Z,61.10
2023-05-05T21:43:02.413Z,61.10
2023-05-05T21:45:32.060Z,61.10
2023-05-05T21:48:00.253Z,61.10
2023-05-05T21:50:29.558Z,61.10
2023-05-05T21:52:57.848Z,61.10
2023-05-05T21:55:26.101Z,61.10
2023-05-05T21:57:54.302Z,61.10
2023-05-05T22:00:22.563Z,61.20
2023-05-05T22:02:52.286Z,61.20
2023-05-05T22:05:20.655Z,61.20
2023-05-05T22:07:48.775Z,61.20
2023-05-05T22:10:17.004Z,61.20
2023-05-05T22:12:45.299Z,61.20
2023-05-05T22:15:19.862Z,61.20
2023-05-05T22:17:48.014Z,61.20
2023-05-05T22:20:17.832Z,61.30
2023-05-05T22:22:46.043Z,61.20
2023-05-05T22:25:14.196Z,61.20
2023-05-05T22:27:42.341Z,61.30
2023-05-05T22:30:11.467Z,61.20
2023-05-05T22:32:39.759Z,61.20
2023-05-05T22:35:09.232Z,61.20
2023-05-05T22:37:38.911Z,61.20
2023-05-05T22:40:09.641Z,61.20
2023-05-05T22:42:37.971Z,61.20
2023-05-05T22:45:06.894Z,61.20
2023-05-05T22:47:35.152Z,61.20
2023-05-05T22:50:03.359Z,61.20
2023-05-05T22:52:31.511Z,61.20
2023-05-05T22:55:01.093Z,61.20
2023-05-05T22:57:29.239Z,61.20
2023-05-05T22:59:57.603Z,61.20
2023-05-05T23:02:26.530Z,61.20
2023-05-05T23:04:56.487Z,61.20
2023-05-05T23:07:24.618Z,61.20
2023-05-05T23:09:52.776Z,61.20
2023-05-05T23:12:22.290Z,61.20
2023-05-05T23:14:50.436Z,61.20
2023-05-05T23:17:18.563Z,61.20
2023-05-05T23:19:49.101Z,61.20
2023-05-05T23:22:17.301Z,61.20
2023-05-05T23:24:45.404Z,61.10
2023-05-05T23:27:14.083Z,61.10
2023-05-05T23:29:43.540Z,61.20
2023-05-05T23:32:11.710Z,61.20
2023-05-05T23:34:39.843Z,61.10
2023-05-05T23:37:07.990Z,61.20
2023-05-05T23:39:36.116Z,61.10
2023-05-05T23:42:04.275Z,61.20
2023-05-05T23:44:32.411Z,61.20
2023-05-05T23:47:01.836Z,61.20
2023-05-05T23:49:29.924Z,61.20
2023-05-05T23:51:58.573Z,61.20
2023-05-05T23:54:26.759Z,61.20
2023-05-05T23:56:54.945Z,61.20
2023-05-05T23:59:23.087Z,61.10
